Country Club Heights, Kentucky
Current Conditions -  °F | °C
As of 7:15 AM on Thursday 18 Dec 2014 (Local Time) from KFGX Reporting Station
Overcast Overcast  
Wind Chill: 26°   Ceiling: 1600
Heat Index: 26°   Visibility: 10mi
Dew Point: 20°   Wind: 3mph
Humidity: 80%   Direction: 10°N
Pressure: 30.28"   Gusts: NA
Location:  38.585°N, 83.7789°W
Report Text: KFGX 181215Z AUTO 01003KT 10SM OVC016 M03/M06 A3028 RMK AO2 T10351065
Loading
Personal Weather Stations






























Interactive Weather Map New forecast layout! Learn more

10-Day Weather Forecast

Advertisements
Track Severe Weather on mobile